createdAt,value
2023-04-18T00:02:38.806Z,101113.50
2023-04-18T00:07:38.566Z,101113.84
2023-04-18T00:12:37.780Z,101125.56
2023-04-18T00:17:40.137Z,101118.28
2023-04-18T00:22:43.954Z,101111.78
2023-04-18T00:27:43.006Z,101106.13
2023-04-18T00:32:41.934Z,101096.91
2023-04-18T00:37:40.916Z,101102.78
2023-04-18T00:42:40.539Z,101097.94
2023-04-18T00:47:39.497Z,101098.63
2023-04-18T00:52:38.909Z,101104.81
2023-04-18T00:57:38.328Z,101095.22
2023-04-18T01:02:38.276Z,101098.91
2023-04-18T01:07:40.788Z,101097.84
2023-04-18T01:12:39.664Z,101098.53
2023-04-18T01:17:38.509Z,101088.09
2023-04-18T01:22:37.542Z,101094.47
2023-04-18T01:27:40.269Z,101082.69
2023-04-18T01:32:39.135Z,101078.00
2023-04-18T01:37:38.029Z,101086.38
2023-04-18T01:42:37.019Z,101086.16
2023-04-18T01:47:36.002Z,101086.13
2023-04-18T01:52:34.958Z,101085.59
2023-04-18T01:57:36.664Z,101092.88
2023-04-18T02:02:35.776Z,101096.31
2023-04-18T02:07:36.055Z,101088.03
2023-04-18T02:12:35.047Z,101084.44
2023-04-18T02:22:34.331Z,101087.75
2023-04-18T02:27:33.100Z,101092.16
2023-04-18T02:32:32.170Z,101098.22
2023-04-18T02:37:31.377Z,101089.47
2023-04-18T02:42:30.780Z,101097.00
2023-04-18T02:47:33.308Z,101093.50
2023-04-18T02:52:34.225Z,101089.97
2023-04-18T02:57:33.054Z,101090.44
2023-04-18T03:02:46.385Z,101105.59
2023-04-18T03:08:03.697Z,101111.81
2023-04-18T03:13:03.114Z,101109.38
2023-04-18T03:18:02.436Z,101108.50
2023-04-18T03:23:05.793Z,101108.25
2023-04-18T03:28:47.800Z,101108.94
2023-04-18T03:33:49.176Z,101111.44
2023-04-18T03:38:48.416Z,101108.72
2023-04-18T03:43:47.153Z,101110.19
2023-04-18T03:48:46.179Z,101109.16
2023-04-18T03:53:45.121Z,101116.16
2023-04-18T03:58:43.984Z,101113.22
2023-04-18T04:03:43.171Z,101108.84
2023-04-18T04:08:42.119Z,101127.53
2023-04-18T04:13:41.185Z,101124.47
2023-04-18T04:18:40.683Z,101130.69
2023-04-18T04:23:42.665Z,101125.69
2023-04-18T04:28:47.480Z,101130.09
2023-04-18T04:33:50.600Z,101132.53
2023-04-18T04:38:52.401Z,101143.31
2023-04-18T04:43:57.858Z,101145.13
2023-04-18T04:49:01.350Z,101148.31
2023-04-18T04:54:00.600Z,101162.53
2023-04-18T04:59:00.014Z,101158.34
2023-04-18T05:04:18.407Z,101162.03
2023-04-18T05:09:17.420Z,101170.25
2023-04-18T05:14:17.639Z,101165.28
2023-04-18T05:19:16.446Z,101171.06
2023-04-18T05:24:15.302Z,101184.34
2023-04-18T05:29:14.340Z,101167.13
2023-04-18T05:34:13.418Z,101176.34
2023-04-18T05:39:12.464Z,101190.50
2023-04-18T05:44:11.337Z,101183.25
2023-04-18T05:49:10.184Z,101186.38
2023-04-18T05:54:08.903Z,101185.28
2023-04-18T05:59:07.677Z,101184.66
2023-04-18T06:04:07.570Z,101182.44
2023-04-18T06:09:06.546Z,101182.81
2023-04-18T06:14:05.574Z,101198.81
2023-04-18T06:19:05.283Z,101198.19
2023-04-18T06:24:04.245Z,101205.06
2023-04-18T06:29:03.208Z,101212.31
2023-04-18T06:34:01.917Z,101208.38
2023-04-18T06:39:01.124Z,101212.31
2023-04-18T06:44:04.225Z,101217.72
2023-04-18T06:49:03.842Z,101216.66
2023-04-18T06:54:02.672Z,101216.91
2023-04-18T06:59:01.715Z,101218.34
2023-04-18T07:04:00.932Z,101213.78
2023-04-18T07:09:01.577Z,101211.69
2023-04-18T07:14:00.445Z,101212.94
2023-04-18T07:18:59.210Z,101217.53
2023-04-18T07:23:57.954Z,101222.91
2023-04-18T07:28:56.751Z,101231.03
2023-04-18T07:33:55.649Z,101237.25
2023-04-18T07:38:54.656Z,101231.44
2023-04-18T07:43:53.534Z,101233.75
2023-04-18T07:48:52.528Z,101236.22
2023-04-18T07:53:51.386Z,101234.34
2023-04-18T07:58:50.231Z,101234.56
2023-04-18T08:03:49.411Z,101235.16
2023-04-18T08:08:48.351Z,101231.59
2023-04-18T08:13:47.289Z,101236.34
2023-04-18T08:18:46.260Z,101236.78
2023-04-18T08:23:46.669Z,101236.97
2023-04-18T08:28:46.592Z,101235.78
2023-04-18T08:33:45.575Z,101245.72
2023-04-18T08:38:44.305Z,101238.63
2023-04-18T08:43:48.071Z,101235.25
2023-04-18T08:48:50.031Z,101236.53
2023-04-18T08:53:50.656Z,101239.00
2023-04-18T08:58:50.565Z,101239.44
2023-04-18T09:03:50.495Z,101247.38
2023-04-18T09:09:10.648Z,101239.38
2023-04-18T09:14:24.276Z,101242.28
2023-04-18T09:19:23.868Z,101243.78
2023-04-18T09:24:24.956Z,101242.75
2023-04-18T09:29:43.546Z,101248.56
2023-04-18T09:34:42.715Z,101250.00
2023-04-18T09:39:44.027Z,101245.28
2023-04-18T09:45:04.113Z,101247.38
2023-04-18T09:50:08.430Z,101256.31
2023-04-18T09:55:09.701Z,101249.88
2023-04-18T10:00:17.091Z,101251.94
2023-04-18T10:05:19.509Z,101253.16
2023-04-18T10:10:19.708Z,101250.50
2023-04-18T10:15:21.426Z,101249.47
2023-04-18T10:20:22.793Z,101248.03
2023-04-18T10:25:39.931Z,101246.78
2023-04-18T10:30:41.659Z,101246.97
2023-04-18T10:36:03.138Z,101253.00
2023-04-18T10:41:26.746Z,101251.06
2023-04-18T10:46:32.564Z,101242.41
2023-04-18T10:51:32.282Z,101241.78
2023-04-18T10:56:31.303Z,101245.34
2023-04-18T11:01:33.013Z,101243.78
2023-04-18T11:06:32.398Z,101247.72
2023-04-18T11:11:31.199Z,101243.84
2023-04-18T11:16:32.723Z,101249.41
2023-04-18T11:21:32.253Z,101251.06
2023-04-18T11:26:31.056Z,101248.94
2023-04-18T11:31:31.603Z,101254.44
2023-04-18T11:36:35.193Z,101250.13
2023-04-18T11:41:33.938Z,101251.19
2023-04-18T11:46:39.648Z,101253.09
2023-04-18T11:51:38.920Z,101254.78
2023-04-18T11:56:47.480Z,101262.47
2023-04-18T12:01:46.363Z,101251.88
2023-04-18T12:06:46.607Z,101254.06
2023-04-18T12:12:00.198Z,101249.91
2023-04-18T12:16:58.933Z,101253.94
2023-04-18T12:22:06.641Z,101254.50
2023-04-18T12:27:05.484Z,101252.44
2023-04-18T12:32:04.494Z,101245.53
2023-04-18T12:37:04.927Z,101249.28
2023-04-18T12:42:03.877Z,101248.81
2023-04-18T12:47:02.753Z,101243.06
2023-04-18T12:52:01.612Z,101250.09
2023-04-18T12:57:01.883Z,101250.28
2023-04-18T13:02:00.860Z,101247.78
2023-04-18T13:06:59.699Z,101253.16
2023-04-18T13:11:58.887Z,101244.22
2023-04-18T13:16:57.820Z,101242.63
2023-04-18T13:21:56.970Z,101242.97
2023-04-18T13:26:56.555Z,101238.09
2023-04-18T13:31:55.673Z,101244.88
2023-04-18T13:36:54.476Z,101245.44
2023-04-18T13:41:54.781Z,101249.59
2023-04-18T13:46:54.548Z,101236.91
2023-04-18T13:51:53.606Z,101238.28
2023-04-18T13:56:59.541Z,101224.91
2023-04-18T14:01:59.123Z,101247.47
2023-04-18T14:06:58.048Z,101243.28
2023-04-18T14:11:58.276Z,101236.06
2023-04-18T14:16:57.299Z,101241.41
2023-04-18T14:21:56.188Z,101232.78
2023-04-18T14:26:55.014Z,101236.59
2023-04-18T14:31:53.822Z,101237.28
2023-04-18T14:36:52.728Z,101232.19
2023-04-18T14:41:51.534Z,101228.59
2023-04-18T14:46:50.832Z,101220.75
2023-04-18T14:51:49.611Z,101220.22
2023-04-18T14:56:48.397Z,101223.53
2023-04-18T15:01:47.282Z,101224.00
2023-04-18T15:06:46.438Z,101225.63
2023-04-18T15:11:45.345Z,101225.06
2023-04-18T15:16:44.304Z,101221.44
2023-04-18T15:21:43.123Z,101220.94
2023-04-18T15:26:42.281Z,101219.63
2023-04-18T15:31:41.094Z,101218.66
2023-04-18T15:36:39.923Z,101221.41
2023-04-18T15:41:39.321Z,101218.25
2023-04-18T15:46:38.556Z,101214.69
2023-04-18T15:51:37.692Z,101222.53
2023-04-18T15:56:36.949Z,101216.06
2023-04-18T16:01:35.806Z,101213.34
2023-04-18T16:06:34.580Z,101214.13
2023-04-18T16:11:33.414Z,101215.97
2023-04-18T16:16:34.316Z,101219.53
2023-04-18T16:21:33.169Z,101211.72
2023-04-18T16:26:31.970Z,101220.22
2023-04-18T16:31:30.913Z,101215.66
2023-04-18T16:36:29.726Z,101215.34
2023-04-18T16:41:28.612Z,101208.81
2023-04-18T16:46:31.352Z,101215.97
2023-04-18T16:51:31.252Z,101208.81
2023-04-18T16:56:30.061Z,101205.06
2023-04-18T17:01:28.954Z,101211.13
2023-04-18T17:06:27.846Z,101215.19
2023-04-18T17:11:26.652Z,101221.41
2023-04-18T17:16:26.244Z,101226.72
2023-04-18T17:21:25.093Z,101231.22
2023-04-18T17:26:25.756Z,101225.28
2023-04-18T17:31:24.622Z,101222.75
2023-04-18T17:36:24.760Z,101224.59
2023-04-18T17:41:23.522Z,101228.94
2023-04-18T17:46:22.262Z,101238.00
2023-04-18T17:51:21.137Z,101228.13
2023-04-18T17:56:22.117Z,101231.00
2023-04-18T18:01:22.079Z,101225.53
2023-04-18T18:06:21.266Z,101231.44
2023-04-18T18:11:21.000Z,101228.44
2023-04-18T18:16:20.452Z,101230.13
2023-04-18T18:21:19.203Z,101237.53
2023-04-18T18:26:17.984Z,101234.34
2023-04-18T18:31:17.511Z,101242.09
2023-04-18T18:36:16.477Z,101244.75
2023-04-18T18:41:15.265Z,101243.06
2023-04-18T18:46:18.177Z,101245.59
2023-04-18T18:51:18.147Z,101241.94
2023-04-18T18:56:16.920Z,101253.66
2023-04-18T19:01:15.944Z,101243.31
2023-04-18T19:06:14.974Z,101248.25
2023-04-18T19:11:13.784Z,101248.97
2023-04-18T19:16:12.968Z,101248.69
2023-04-18T19:21:11.744Z,101249.09
2023-04-18T19:26:10.545Z,101249.09
2023-04-18T19:31:09.613Z,101241.94
2023-04-18T19:36:08.432Z,101240.59
2023-04-18T19:41:07.324Z,101240.56
2023-04-18T19:46:06.196Z,101236.38
2023-04-18T19:51:05.075Z,101234.69
2023-04-18T19:56:05.035Z,101230.50
2023-04-18T20:01:06.030Z,101232.75
2023-04-18T20:06:05.716Z,101227.19
2023-04-18T20:11:07.241Z,101224.75
2023-04-18T20:16:07.443Z,101225.91
2023-04-18T20:21:08.249Z,101226.41
2023-04-18T20:26:07.118Z,101217.25
2023-04-18T20:31:06.084Z,101218.69
2023-04-18T20:36:06.485Z,101222.56
2023-04-18T20:41:05.255Z,101219.38
2023-04-18T20:46:04.065Z,101217.81
2023-04-18T20:51:02.903Z,101214.53
2023-04-18T20:56:03.105Z,101219.72
2023-04-18T21:01:01.885Z,101226.31
2023-04-18T21:06:00.659Z,101210.06
2023-04-18T21:10:59.428Z,101213.03
2023-04-18T21:15:58.427Z,101204.56
2023-04-18T21:20:57.243Z,101198.47
2023-04-18T21:25:56.082Z,101205.13
2023-04-18T21:30:54.842Z,101197.69
2023-04-18T21:35:53.693Z,101204.38
2023-04-18T21:40:52.481Z,101190.66
2023-04-18T21:45:51.298Z,101191.00
2023-04-18T21:50:56.273Z,101185.91
2023-04-18T21:55:55.084Z,101179.94
2023-04-18T22:00:54.255Z,101176.72
2023-04-18T22:05:53.387Z,101170.50
2023-04-18T22:10:55.055Z,101161.66
2023-04-18T22:15:53.966Z,101172.38
2023-04-18T22:20:53.900Z,101159.00
2023-04-18T22:25:52.792Z,101155.19
2023-04-18T22:30:51.672Z,101153.72
2023-04-18T22:35:50.564Z,101147.03
2023-04-18T22:40:49.505Z,101149.13
2023-04-18T22:45:48.494Z,101143.56
2023-04-18T22:50:47.548Z,101138.06
2023-04-18T22:55:46.735Z,101145.16
2023-04-18T23:00:45.995Z,101138.75
2023-04-18T23:05:44.754Z,101134.31
2023-04-18T23:10:43.510Z,101132.34
2023-04-18T23:15:42.431Z,101129.53
2023-04-18T23:20:41.307Z,101127.84
2023-04-18T23:25:40.142Z,101124.28
2023-04-18T23:30:39.170Z,101122.53
2023-04-18T23:35:37.982Z,101116.47
2023-04-18T23:40:36.733Z,101112.34
2023-04-18T23:45:36.600Z,101108.69
2023-04-18T23:50:46.112Z,101105.03
2023-04-18T23:55:46.223Z,101098.00
